createdAt,value
2019-04-11T00:01:35.880Z,31.07
2019-04-11T00:03:57.819Z,29.97
2019-04-11T00:06:29.757Z,30.70
2019-04-11T00:09:00.687Z,30.80
2019-04-11T00:11:33.622Z,29.73
2019-04-11T00:14:03.690Z,28.13
2019-04-11T00:16:34.098Z,27.77
2019-04-11T00:19:07.325Z,30.03
2019-04-11T00:21:39.341Z,29.20
2019-04-11T00:24:10.419Z,28.93
2019-04-11T00:26:40.325Z,28.87
2019-04-11T00:29:10.274Z,30.17
2019-04-11T00:31:41.117Z,28.70
2019-04-11T00:34:11.009Z,28.77
2019-04-11T00:36:41.096Z,29.37
2019-04-11T00:39:15.236Z,28.90
2019-04-11T00:41:48.267Z,28.83
2019-04-11T00:44:23.052Z,29.97
2019-04-11T00:46:57.168Z,27.73
2019-04-11T00:49:28.848Z,28.30
2019-04-11T00:52:02.719Z,29.33
2019-04-11T00:54:35.529Z,28.67
2019-04-11T00:57:08.494Z,28.77
2019-04-11T00:59:40.632Z,29.23
2019-04-11T01:02:11.512Z,28.47
2019-04-11T01:04:41.414Z,29.23
2019-04-11T01:07:11.175Z,31.10
2019-04-11T01:09:40.955Z,30.43
2019-04-11T01:12:10.821Z,29.70
2019-04-11T01:14:40.719Z,29.97
2019-04-11T01:17:10.475Z,32.07
2019-04-11T01:19:40.722Z,30.17
2019-04-11T01:22:10.793Z,30.57
2019-04-11T01:24:40.650Z,31.47
2019-04-11T01:27:10.431Z,32.10
2019-04-11T01:29:40.360Z,31.13
2019-04-11T01:32:13.898Z,30.03
2019-04-11T01:34:44.635Z,31.13
2019-04-11T01:37:15.507Z,30.13
2019-04-11T01:39:47.417Z,31.53
2019-04-11T01:42:17.712Z,31.53
2019-04-11T01:44:47.698Z,30.43
2019-04-11T01:47:22.546Z,30.97
2019-04-11T01:49:52.534Z,30.53
2019-04-11T01:52:22.480Z,31.20
2019-04-11T01:54:52.308Z,31.57
2019-04-11T01:57:22.203Z,31.10
2019-04-11T01:59:51.973Z,30.50
2019-04-11T02:02:32.706Z,32.27
2019-04-11T02:05:10.495Z,31.20
2019-04-11T02:07:40.399Z,32.40
2019-04-11T02:10:10.667Z,29.40
2019-04-11T02:12:41.537Z,32.40
2019-04-11T02:15:12.333Z,32.40
2019-04-11T02:17:43.233Z,31.73
2019-04-11T02:20:13.221Z,31.73
2019-04-11T02:22:48.679Z,30.83
2019-04-11T02:25:32.372Z,29.53
2019-04-11T02:28:04.407Z,31.40
2019-04-11T02:30:38.186Z,30.87
2019-04-11T02:33:09.415Z,30.10
2019-04-11T02:35:39.997Z,31.27
2019-04-11T02:38:12.603Z,29.97
2019-04-11T02:40:43.181Z,29.23
2019-04-11T02:43:15.286Z,30.83
2019-04-11T02:45:56.985Z,29.83
2019-04-11T02:48:18.226Z,30.73
2019-04-11T02:50:50.211Z,31.03
2019-04-11T02:53:21.302Z,31.17
2019-04-11T02:55:52.032Z,32.03
2019-04-11T02:58:23.111Z,31.30
2019-04-11T03:00:55.389Z,30.83
2019-04-11T03:03:25.394Z,31.57
2019-04-11T03:05:57.640Z,32.77
2019-04-11T03:08:29.805Z,31.90
2019-04-11T03:10:59.575Z,32.77
2019-04-11T03:13:29.702Z,33.40
2019-04-11T03:16:19.018Z,33.20
2019-04-11T03:18:51.356Z,34.77
2019-04-11T03:21:09.038Z,34.23
2019-04-11T03:23:35.448Z,33.30
2019-04-11T03:26:07.544Z,34.70
2019-04-11T03:28:38.862Z,34.37
2019-04-11T03:31:42.423Z,34.30
2019-04-11T03:34:30.510Z,33.57
2019-04-11T03:37:08.691Z,34.03
2019-04-11T03:39:07.692Z,33.03
2019-04-11T03:41:34.677Z,33.33
2019-04-11T03:43:59.445Z,33.00
2019-04-11T03:46:38.075Z,34.13
2019-04-11T03:49:01.241Z,36.20
2019-04-11T03:51:23.343Z,34.27
2019-04-11T03:53:53.639Z,37.87
2019-04-11T03:56:24.422Z,34.13
2019-04-11T03:58:55.367Z,31.77
2019-04-11T04:01:26.773Z,32.60
2019-04-11T04:04:00.479Z,34.00
2019-04-11T04:06:30.988Z,34.60
2019-04-11T04:09:02.751Z,38.20
2019-04-11T04:11:34.242Z,37.30
2019-04-11T04:14:10.294Z,39.57
2019-04-11T04:17:01.166Z,50.57
2019-04-11T04:19:47.819Z,48.37
2019-04-11T04:22:27.284Z,36.53
2019-04-11T04:24:58.928Z,35.63
2019-04-11T04:27:32.555Z,35.53
2019-04-11T04:30:05.129Z,34.80
2019-04-11T04:32:36.322Z,34.40
2019-04-11T04:35:10.711Z,34.03
2019-04-11T04:37:41.015Z,34.70
2019-04-11T04:40:27.997Z,34.60
2019-04-11T04:42:47.659Z,34.63
2019-04-11T04:45:16.519Z,36.57
2019-04-11T04:47:54.871Z,35.97
2019-04-11T04:50:20.081Z,32.87
2019-04-11T04:52:51.587Z,32.70
2019-04-11T04:55:23.602Z,31.80
2019-04-11T04:57:55.583Z,33.23
2019-04-11T05:00:29.661Z,32.80
2019-04-11T05:03:01.934Z,33.07
2019-04-11T05:05:31.306Z,34.53
2019-04-11T05:08:02.730Z,33.13
2019-04-11T05:10:35.945Z,32.50
2019-04-11T05:13:07.634Z,35.10
2019-04-11T05:15:38.709Z,33.60
2019-04-11T05:18:11.180Z,34.90
2019-04-11T05:20:40.712Z,34.57
2019-04-11T05:23:13.925Z,33.23
2019-04-11T05:25:44.609Z,32.63
2019-04-11T05:28:16.184Z,32.10
2019-04-11T05:30:46.017Z,33.60
2019-04-11T05:33:18.076Z,32.67
2019-04-11T05:35:48.083Z,33.70
2019-04-11T05:38:18.887Z,32.10
2019-04-11T05:40:48.938Z,33.20
2019-04-11T05:43:19.905Z,33.97
2019-04-11T05:45:53.645Z,33.50
2019-04-11T05:48:30.575Z,33.67
2019-04-11T05:51:00.669Z,32.50
2019-04-11T05:53:32.742Z,33.00
2019-04-11T05:56:03.775Z,33.50
2019-04-11T05:58:37.296Z,31.40
2019-04-11T06:01:18.060Z,31.03
2019-04-11T06:03:52.044Z,34.30
2019-04-11T06:06:31.958Z,38.23
2019-04-11T06:09:04.615Z,44.17
2019-04-11T06:11:41.706Z,34.40
2019-04-11T06:14:31.225Z,33.17
2019-04-11T06:17:05.310Z,34.63
2019-04-11T06:19:43.897Z,33.80
2019-04-11T06:22:14.822Z,31.77
2019-04-11T06:25:03.475Z,31.87
2019-04-11T06:27:36.298Z,30.50
2019-04-11T06:30:21.553Z,30.07
2019-04-11T06:33:10.135Z,29.13
2019-04-11T06:35:44.869Z,29.37
2019-04-11T06:38:32.452Z,29.93
2019-04-11T06:41:04.101Z,47.43
2019-04-11T06:43:40.956Z,36.20
2019-04-11T06:46:29.239Z,31.00
2019-04-11T06:49:00.856Z,29.20
2019-04-11T06:51:48.441Z,29.47
2019-04-11T06:54:25.909Z,30.73
2019-04-11T06:56:55.718Z,32.93
2019-04-11T06:59:29.518Z,30.00
2019-04-11T07:02:13.734Z,32.10
2019-04-11T07:04:40.209Z,30.70
2019-04-11T07:07:12.814Z,31.77
2019-04-11T07:09:45.379Z,29.13
2019-04-11T07:12:26.546Z,30.90
2019-04-11T07:15:10.257Z,29.37
2019-04-11T07:17:59.042Z,28.90
2019-04-11T07:20:49.896Z,27.97
2019-04-11T07:23:38.437Z,28.73
2019-04-11T07:26:10.209Z,27.53
2019-04-11T07:28:41.840Z,28.33
2019-04-11T07:31:30.161Z,28.20
2019-04-11T07:34:08.763Z,26.67
2019-04-11T07:36:48.323Z,25.50
2019-04-11T07:39:20.180Z,25.63
2019-04-11T07:41:56.043Z,26.50
2019-04-11T07:44:30.125Z,26.90
2019-04-11T07:47:14.589Z,26.77
2019-04-11T07:49:40.888Z,28.23
2019-04-11T07:52:15.790Z,26.20
2019-04-11T07:54:45.714Z,25.03
2019-04-11T07:57:19.167Z,26.27
2019-04-11T07:59:51.224Z,26.00
2019-04-11T08:02:39.906Z,25.07
2019-04-11T08:05:15.452Z,25.53
2019-04-11T08:07:46.969Z,26.37
2019-04-11T08:10:20.927Z,25.13
2019-04-11T08:12:51.955Z,34.33
2019-04-11T08:15:41.948Z,29.70
2019-04-11T08:18:14.624Z,24.93
2019-04-11T08:21:03.700Z,25.20
2019-04-11T08:23:33.903Z,24.97
2019-04-11T08:26:15.190Z,25.67
2019-04-11T08:28:45.630Z,24.27
2019-04-11T08:31:24.387Z,25.03
2019-04-11T08:33:57.192Z,24.87
2019-04-11T08:36:47.704Z,24.17
2019-04-11T08:39:18.924Z,24.97
2019-04-11T08:41:53.050Z,24.70
2019-04-11T08:44:23.785Z,24.67
2019-04-11T08:46:55.995Z,24.17
2019-04-11T08:49:31.636Z,25.23
2019-04-11T08:52:03.916Z,23.10
2019-04-11T08:54:41.748Z,23.13
2019-04-11T08:57:13.681Z,24.67
2019-04-11T08:59:54.239Z,24.07
2019-04-11T09:02:25.077Z,24.17
2019-04-11T09:05:04.942Z,24.43
2019-04-11T09:07:46.773Z,24.23
2019-04-11T09:10:24.189Z,23.70
2019-04-11T09:12:58.546Z,25.77
2019-04-11T09:15:46.046Z,23.30
2019-04-11T09:18:15.633Z,26.57
2019-04-11T09:20:53.901Z,25.57
2019-04-11T09:23:23.899Z,25.00
2019-04-11T09:26:01.713Z,26.03
2019-04-11T09:28:37.701Z,25.30
2019-04-11T09:31:25.549Z,24.63
2019-04-11T09:34:03.730Z,23.53
2019-04-11T09:36:38.813Z,25.30
2019-04-11T09:39:15.099Z,24.77
2019-04-11T09:42:04.946Z,24.07
2019-04-11T09:44:49.118Z,26.30
2019-04-11T09:47:33.689Z,24.70
2019-04-11T09:50:05.774Z,23.43
2019-04-11T09:52:37.144Z,24.63
2019-04-11T09:55:25.519Z,25.53
2019-04-11T09:58:00.107Z,24.20
2019-04-11T10:00:38.894Z,24.23
2019-04-11T10:03:17.913Z,23.60
2019-04-11T10:05:52.711Z,23.60
2019-04-11T10:08:26.639Z,23.40
2019-04-11T10:11:15.989Z,23.53
2019-04-11T10:13:53.493Z,24.17
2019-04-11T10:16:28.404Z,25.03
2019-04-11T10:19:17.682Z,21.13
2019-04-11T10:21:52.055Z,22.27
2019-04-11T10:24:36.648Z,23.53
2019-04-11T10:27:08.768Z,20.87
2019-04-11T10:29:44.078Z,22.53
2019-04-11T10:32:15.528Z,21.60
2019-04-11T10:34:59.682Z,22.40
2019-04-11T10:37:29.594Z,20.90
2019-04-11T10:40:10.208Z,20.90
2019-04-11T10:42:42.226Z,20.13
2019-04-11T10:45:16.568Z,20.03
2019-04-11T10:47:47.310Z,21.83
2019-04-11T10:50:34.638Z,18.87
2019-04-11T10:53:04.246Z,18.87
2019-04-11T10:55:35.791Z,20.23
2019-04-11T10:58:13.146Z,20.07
2019-04-11T11:00:53.688Z,17.77
2019-04-11T11:03:40.329Z,19.13
2019-04-11T11:06:11.658Z,18.33
2019-04-11T11:08:51.959Z,18.07
2019-04-11T11:11:24.253Z,18.30
2019-04-11T11:14:07.785Z,17.37
2019-04-11T11:16:44.869Z,17.40
2019-04-11T11:19:45.756Z,16.70
2019-04-11T11:22:12.560Z,19.70
2019-04-11T11:25:00.209Z,16.33
2019-04-11T11:27:31.054Z,16.03
2019-04-11T11:30:14.260Z,15.83
2019-04-11T11:32:46.590Z,15.53
2019-04-11T11:35:25.259Z,15.63
2019-04-11T11:37:57.451Z,15.03
2019-04-11T11:40:45.111Z,16.37
2019-04-11T11:43:23.622Z,15.77
2019-04-11T11:45:58.929Z,16.17
2019-04-11T11:48:31.955Z,15.50
2019-04-11T11:51:05.408Z,15.77
2019-04-11T11:53:37.004Z,16.03
2019-04-11T11:56:09.862Z,15.53
2019-04-11T11:58:51.879Z,15.10
2019-04-11T12:01:29.557Z,15.67
2019-04-11T12:04:23.608Z,15.50
2019-04-11T12:06:59.819Z,16.10
2019-04-11T12:09:46.731Z,16.13
2019-04-11T12:12:18.294Z,13.73
2019-04-11T12:14:51.661Z,15.07
2019-04-11T12:17:29.315Z,14.87
2019-04-11T12:20:09.020Z,23.37
2019-04-11T12:22:36.719Z,16.53
2019-04-11T12:25:14.598Z,14.40
2019-04-11T12:27:49.985Z,14.67
2019-04-11T12:30:26.595Z,15.43
2019-04-11T12:33:14.031Z,14.77
2019-04-11T12:35:46.445Z,14.67
2019-04-11T12:38:36.297Z,14.30
2019-04-11T12:41:23.140Z,13.47
2019-04-11T12:44:00.736Z,13.93
2019-04-11T12:46:38.933Z,13.10
2019-04-11T12:49:19.019Z,12.70
2019-04-11T12:52:07.796Z,12.97
2019-04-11T12:54:39.186Z,12.50
2019-04-11T12:57:13.299Z,11.23
2019-04-11T12:59:43.087Z,11.83
2019-04-11T13:02:23.305Z,11.80
2019-04-11T13:04:53.082Z,11.43
2019-04-11T13:07:27.352Z,11.73
2019-04-11T13:09:58.855Z,12.00
2019-04-11T13:12:33.027Z,12.00
2019-04-11T13:15:10.131Z,10.77
2019-04-11T13:17:44.117Z,15.13
2019-04-11T13:20:30.603Z,11.03
2019-04-11T13:23:02.015Z,10.90
2019-04-11T13:25:36.302Z,11.23
2019-04-11T13:28:08.191Z,11.20
2019-04-11T13:30:42.336Z,11.20
2019-04-11T13:33:15.296Z,9.13
2019-04-11T13:36:01.906Z,9.47
2019-04-11T13:38:34.678Z,8.80
2019-04-11T13:41:08.977Z,8.03
2019-04-11T13:43:42.880Z,7.93
2019-04-11T13:46:14.232Z,7.20
2019-04-11T13:49:03.250Z,7.60
2019-04-11T13:51:34.594Z,7.07
2019-04-11T13:54:14.668Z,6.90
2019-04-11T13:57:04.046Z,8.07
2019-04-11T13:59:35.761Z,7.57
2019-04-11T14:02:17.632Z,7.07
2019-04-11T14:04:57.839Z,6.93
2019-04-11T14:07:29.166Z,7.00
2019-04-11T14:10:01.573Z,6.60
2019-04-11T14:12:33.412Z,12.60
2019-04-11T14:15:11.395Z,19.37
2019-04-11T14:17:54.580Z,7.93
2019-04-11T14:20:29.697Z,8.03
2019-04-11T14:23:04.815Z,7.80
2019-04-11T14:25:36.251Z,6.10
2019-04-11T14:28:10.548Z,7.57
2019-04-11T14:30:59.660Z,6.20
2019-04-11T14:33:32.782Z,5.50
2019-04-11T14:36:08.600Z,6.40
2019-04-11T14:38:46.450Z,7.13
2019-04-11T14:41:30.059Z,7.10
2019-04-11T14:44:01.807Z,6.63
2019-04-11T14:46:52.068Z,7.30
2019-04-11T14:49:21.834Z,8.03
2019-04-11T14:52:02.078Z,7.70
2019-04-11T14:54:34.361Z,7.83
2019-04-11T14:57:05.791Z,8.17
2019-04-11T14:59:36.935Z,7.60
2019-04-11T15:02:23.423Z,7.27
2019-04-11T15:05:00.605Z,6.77
2019-04-11T15:07:34.430Z,24.47
2019-04-11T15:10:17.066Z,15.17
2019-04-11T15:12:49.176Z,6.90
2019-04-11T15:15:36.879Z,7.27
2019-04-11T15:18:07.003Z,6.60
2019-04-11T15:20:54.337Z,7.03
2019-04-11T15:23:32.599Z,7.40
2019-04-11T15:26:07.894Z,7.20
2019-04-11T15:28:43.738Z,8.43
2019-04-11T15:31:39.191Z,8.20
2019-04-11T15:34:03.731Z,8.20
2019-04-11T15:36:34.358Z,7.03
2019-04-11T15:39:08.942Z,7.73
2019-04-11T15:41:40.301Z,6.87
2019-04-11T15:44:14.624Z,7.73
2019-04-11T15:46:47.576Z,6.97
2019-04-11T15:49:34.624Z,7.43
2019-04-11T15:52:06.887Z,7.90
2019-04-11T15:54:47.945Z,7.23
2019-04-11T15:57:22.273Z,8.30
2019-04-11T16:00:08.916Z,7.17
2019-04-11T16:02:50.164Z,8.73
2019-04-11T16:05:31.769Z,7.60
2019-04-11T16:08:22.489Z,7.53
2019-04-11T16:11:03.309Z,7.30
2019-04-11T16:13:34.898Z,6.77
2019-04-11T16:16:12.116Z,7.43
2019-04-11T16:19:00.932Z,6.80
2019-04-11T16:21:54.678Z,6.87
2019-04-11T16:24:38.031Z,9.20
2019-04-11T16:27:15.090Z,7.33
2019-04-11T16:29:46.480Z,6.57
2019-04-11T16:32:19.241Z,15.57
2019-04-11T16:34:58.577Z,8.07
2019-04-11T16:37:27.229Z,7.03
2019-04-11T16:40:20.843Z,7.00
2019-04-11T16:42:54.356Z,6.70
2019-04-11T16:45:42.443Z,7.83
2019-04-11T16:48:14.070Z,8.37
2019-04-11T16:50:46.373Z,6.87
2019-04-11T16:53:18.442Z,7.63
2019-04-11T16:55:48.269Z,7.13
2019-04-11T16:58:19.631Z,7.47
2019-04-11T17:00:52.595Z,7.27
2019-04-11T17:03:24.755Z,7.90
2019-04-11T17:06:03.054Z,8.20
2019-04-11T17:08:51.678Z,7.63
2019-04-11T17:11:21.683Z,7.67
2019-04-11T17:13:57.029Z,7.80
2019-04-11T17:16:24.962Z,7.37
2019-04-11T17:18:55.929Z,7.60
2019-04-11T17:21:25.836Z,7.70
2019-04-11T17:23:57.169Z,8.50
2019-04-11T17:26:26.922Z,7.90
2019-04-11T17:28:57.186Z,8.23
2019-04-11T17:31:27.887Z,8.10
2019-04-11T17:34:01.546Z,7.63
2019-04-11T17:36:30.754Z,7.20
2019-04-11T17:39:00.718Z,7.40
2019-04-11T17:41:30.471Z,7.83
2019-04-11T17:44:00.334Z,7.30
2019-04-11T17:46:30.134Z,10.17
2019-04-11T17:49:00.287Z,8.37
2019-04-11T17:51:30.114Z,8.00
2019-04-11T17:54:02.268Z,7.57
2019-04-11T17:56:32.074Z,9.30
2019-04-11T17:59:01.911Z,9.13
2019-04-11T18:01:33.459Z,14.10
2019-04-11T18:04:03.998Z,8.90
2019-04-11T18:06:33.832Z,8.40
2019-04-11T18:09:06.358Z,8.87
2019-04-11T18:11:36.390Z,8.37
2019-04-11T18:14:06.206Z,8.67
2019-04-11T18:16:37.323Z,8.80
2019-04-11T18:19:10.081Z,7.70
2019-04-11T18:21:41.074Z,8.03
2019-04-11T18:24:11.819Z,7.47
2019-04-11T18:26:41.597Z,7.83
2019-04-11T18:29:11.420Z,8.40
2019-04-11T18:31:41.387Z,8.00
2019-04-11T18:34:11.234Z,7.77
2019-04-11T18:36:41.061Z,8.07
2019-04-11T18:39:11.118Z,7.57
2019-04-11T18:41:40.933Z,7.93
2019-04-11T18:44:18.031Z,7.47
2019-04-11T18:46:50.261Z,7.70
2019-04-11T18:49:21.837Z,8.30
2019-04-11T18:51:53.774Z,7.93
2019-04-11T18:54:24.315Z,7.97
2019-04-11T18:56:54.528Z,8.90
2019-04-11T18:59:27.407Z,8.43
2019-04-11T19:01:57.228Z,9.37
2019-04-11T19:04:32.543Z,17.73
2019-04-11T19:07:00.660Z,8.50
2019-04-11T19:09:32.728Z,9.60
2019-04-11T19:12:04.173Z,9.90
2019-04-11T19:14:34.007Z,9.53
2019-04-11T19:17:03.844Z,9.30
2019-04-11T19:19:33.656Z,9.53
2019-04-11T19:22:03.589Z,8.83
2019-04-11T19:24:35.645Z,10.50
2019-04-11T19:27:06.394Z,9.33
2019-04-11T19:29:40.742Z,9.80
2019-04-11T19:32:10.987Z,10.17
2019-04-11T19:34:41.654Z,10.13
2019-04-11T19:37:12.696Z,9.97
2019-04-11T19:39:45.446Z,10.13
2019-04-11T19:42:19.551Z,10.73
2019-04-11T19:44:50.336Z,9.90
2019-04-11T19:47:23.365Z,10.03
2019-04-11T19:49:54.185Z,10.43
2019-04-11T19:52:26.907Z,9.97
2019-04-11T19:54:59.420Z,10.87
2019-04-11T19:57:29.209Z,10.97
2019-04-11T19:59:58.985Z,11.40
2019-04-11T20:02:31.084Z,10.77
2019-04-11T20:05:00.904Z,10.40
2019-04-11T20:07:30.725Z,10.33
2019-04-11T20:10:03.974Z,11.13
2019-04-11T20:12:38.506Z,11.00
2019-04-11T20:15:14.457Z,10.30
2019-04-11T20:17:52.068Z,10.70
2019-04-11T20:20:20.683Z,10.50
2019-04-11T20:22:58.713Z,10.67
2019-04-11T20:25:25.384Z,10.30
2019-04-11T20:27:57.291Z,11.33
2019-04-11T20:30:26.722Z,11.20
2019-04-11T20:32:57.289Z,10.50
2019-04-11T20:35:29.676Z,11.20
2019-04-11T20:38:02.149Z,10.73
2019-04-11T20:40:31.860Z,10.97
2019-04-11T20:43:02.965Z,10.77
2019-04-11T20:45:38.091Z,10.57
2019-04-11T20:48:09.271Z,10.50
2019-04-11T20:50:39.051Z,10.73
2019-04-11T20:53:12.942Z,10.77
2019-04-11T20:55:42.892Z,10.53
2019-04-11T20:58:14.449Z,11.93
2019-04-11T21:00:50.561Z,11.73
2019-04-11T21:03:24.665Z,11.03
2019-04-11T21:05:59.021Z,11.40
2019-04-11T21:08:36.997Z,10.77
2019-04-11T21:11:06.881Z,11.53
2019-04-11T21:13:39.212Z,10.47
2019-04-11T21:16:09.520Z,10.50
2019-04-11T21:18:41.201Z,11.10
2019-04-11T21:21:14.961Z,10.90
2019-04-11T21:23:44.765Z,11.20
2019-04-11T21:26:15.505Z,12.07
2019-04-11T21:28:46.542Z,11.57
2019-04-11T21:31:17.804Z,11.63
2019-04-11T21:33:47.670Z,11.20
2019-04-11T21:36:23.030Z,11.37
2019-04-11T21:38:53.121Z,11.60
2019-04-11T21:41:24.248Z,10.77
2019-04-11T21:43:59.827Z,11.73
2019-04-11T21:46:31.664Z,11.93
2019-04-11T21:49:06.058Z,11.10
2019-04-11T21:51:51.690Z,11.33
2019-04-11T21:54:27.438Z,11.63
2019-04-11T21:56:57.293Z,11.93
2019-04-11T21:59:27.130Z,11.40
2019-04-11T22:01:56.926Z,11.10
2019-04-11T22:04:28.562Z,11.33
2019-04-11T22:07:00.679Z,11.00
2019-04-11T22:09:29.685Z,12.00
2019-04-11T22:11:59.486Z,12.47
2019-04-11T22:14:29.331Z,12.47
2019-04-11T22:16:59.444Z,11.90
2019-04-11T22:19:29.225Z,12.33
2019-04-11T22:22:02.463Z,12.50
2019-04-11T22:24:32.092Z,12.07
2019-04-11T22:27:02.070Z,11.90
2019-04-11T22:29:33.324Z,11.93
2019-04-11T22:32:03.170Z,12.60
2019-04-11T22:34:43.956Z,11.07
2019-04-11T22:37:13.749Z,11.80
2019-04-11T22:39:43.550Z,11.27
2019-04-11T22:42:13.476Z,12.17
2019-04-11T22:44:43.270Z,12.47
2019-04-11T22:47:13.050Z,12.57
2019-04-11T22:49:42.841Z,12.13
2019-04-11T22:52:12.633Z,13.00
2019-04-11T22:54:42.445Z,12.90
2019-04-11T22:57:12.923Z,12.03
2019-04-11T22:59:44.941Z,12.20
2019-04-11T23:02:17.670Z,11.70
2019-04-11T23:04:47.638Z,11.90
2019-04-11T23:07:17.935Z,11.33
2019-04-11T23:09:49.020Z,11.73
2019-04-11T23:12:19.310Z,11.50
2019-04-11T23:14:49.089Z,11.83
2019-04-11T23:17:18.917Z,11.57
2019-04-11T23:19:49.129Z,11.23
2019-04-11T23:22:18.902Z,11.90
2019-04-11T23:24:49.623Z,11.67
2019-04-11T23:27:19.386Z,11.67
2019-04-11T23:29:49.126Z,12.47
2019-04-11T23:32:21.234Z,12.23
2019-04-11T23:34:52.641Z,12.83
2019-04-11T23:37:22.091Z,12.03
2019-04-11T23:39:52.665Z,11.90
2019-04-11T23:42:25.149Z,11.80
2019-04-11T23:44:55.124Z,12.17
2019-04-11T23:47:25.242Z,12.50
2019-04-11T23:49:56.067Z,12.27
2019-04-11T23:52:26.798Z,12.87
2019-04-11T23:55:00.572Z,12.53
2019-04-11T23:57:31.201Z,12.70
